sensor_id;sensor_type;location;lat;lon;timestamp;P1;durP1;ratioP1;P2;durP2;ratioP2
10823;SDS011;39116;59.332;18.034;2023-03-21T00:00:06;10.20;;;6.60;;
10823;SDS011;39116;59.332;18.034;2023-03-21T00:02:30;10.60;;;6.43;;
10823;SDS011;39116;59.332;18.034;2023-03-21T00:04:52;45.30;;;8.83;;
10823;SDS011;39116;59.332;18.034;2023-03-21T00:07:16;18.50;;;7.37;;
10823;SDS011;39116;59.332;18.034;2023-03-21T00:09:37;9.80;;;6.83;;
10823;SDS011;39116;59.332;18.034;2023-03-21T00:11:59;16.93;;;7.40;;
10823;SDS011;39116;59.332;18.034;2023-03-21T00:14:21;19.10;;;6.50;;
10823;SDS011;39116;59.332;18.034;2023-03-21T00:16:45;12.20;;;5.50;;
10823;SDS011;39116;59.332;18.034;2023-03-21T00:19:09;26.30;;;6.93;;
10823;SDS011;39116;59.332;18.034;2023-03-21T00:21:33;34.80;;;7.43;;
10823;SDS011;39116;59.332;18.034;2023-03-21T00:23:59;21.40;;;6.03;;
10823;SDS011;39116;59.332;18.034;2023-03-21T00:26:21;11.73;;;5.40;;
10823;SDS011;39116;59.332;18.034;2023-03-21T00:28:43;23.67;;;5.90;;
10823;SDS011;39116;59.332;18.034;2023-03-21T00:31:05;12.37;;;5.57;;
10823;SDS011;39116;59.332;18.034;2023-03-21T00:33:27;11.50;;;4.80;;
10823;SDS011;39116;59.332;18.034;2023-03-21T00:35:50;12.93;;;4.53;;
10823;SDS011;39116;59.332;18.034;2023-03-21T00:38:12;19.53;;;4.77;;
10823;SDS011;39116;59.332;18.034;2023-03-21T00:40:36;30.00;;;6.20;;
10823;SDS011;39116;59.332;18.034;2023-03-21T00:42:58;20.70;;;5.53;;
10823;SDS011;39116;59.332;18.034;2023-03-21T00:45:20;54.03;;;6.80;;
10823;SDS011;39116;59.332;18.034;2023-03-21T00:47:42;63.00;;;7.60;;
10823;SDS011;39116;59.332;18.034;2023-03-21T00:50:04;100.40;;;9.63;;
10823;SDS011;39116;59.332;18.034;2023-03-21T00:52:27;11.87;;;5.37;;
10823;SDS011;39116;59.332;18.034;2023-03-21T00:54:49;27.57;;;5.90;;
10823;SDS011;39116;59.332;18.034;2023-03-21T00:57:12;32.43;;;6.90;;
10823;SDS011;39116;59.332;18.034;2023-03-21T00:59:34;49.90;;;8.73;;
10823;SDS011;39116;59.332;18.034;2023-03-21T01:01:56;24.37;;;6.73;;
10823;SDS011;39116;59.332;18.034;2023-03-21T01:04:19;26.70;;;7.40;;
10823;SDS011;39116;59.332;18.034;2023-03-21T01:06:45;22.33;;;7.73;;
10823;SDS011;39116;59.332;18.034;2023-03-21T01:09:11;18.40;;;7.87;;
10823;SDS011;39116;59.332;18.034;2023-03-21T01:11:34;24.60;;;8.47;;
10823;SDS011;39116;59.332;18.034;2023-03-21T01:13:58;30.70;;;7.50;;
10823;SDS011;39116;59.332;18.034;2023-03-21T01:16:20;51.67;;;8.77;;
10823;SDS011;39116;59.332;18.034;2023-03-21T01:18:42;40.73;;;7.87;;
10823;SDS011;39116;59.332;18.034;2023-03-21T01:21:05;69.40;;;9.47;;
10823;SDS011;39116;59.332;18.034;2023-03-21T01:23:28;17.53;;;6.43;;
10823;SDS011;39116;59.332;18.034;2023-03-21T01:25:51;15.87;;;6.83;;
10823;SDS011;39116;59.332;18.034;2023-03-21T01:28:14;14.17;;;5.97;;
10823;SDS011;39116;59.332;18.034;2023-03-21T01:30:38;68.73;;;8.10;;
10823;SDS011;39116;59.332;18.034;2023-03-21T01:33:04;32.40;;;7.10;;
10823;SDS011;39116;59.332;18.034;2023-03-21T01:35:26;52.13;;;8.77;;
10823;SDS011;39116;59.332;18.034;2023-03-21T01:37:48;48.13;;;8.17;;
10823;SDS011;39116;59.332;18.034;2023-03-21T01:40:11;16.70;;;5.73;;
10823;SDS011;39116;59.332;18.034;2023-03-21T01:42:38;41.53;;;8.07;;
10823;SDS011;39116;59.332;18.034;2023-03-21T01:45:00;26.03;;;6.83;;
10823;SDS011;39116;59.332;18.034;2023-03-21T01:47:25;39.43;;;8.20;;
10823;SDS011;39116;59.332;18.034;2023-03-21T01:49:48;63.53;;;9.10;;
10823;SDS011;39116;59.332;18.034;2023-03-21T01:52:13;47.53;;;8.73;;
10823;SDS011;39116;59.332;18.034;2023-03-21T01:54:37;74.47;;;9.80;;
10823;SDS011;39116;59.332;18.034;2023-03-21T01:57:03;91.67;;;9.47;;
10823;SDS011;39116;59.332;18.034;2023-03-21T01:59:30;100.77;;;10.63;;
10823;SDS011;39116;59.332;18.034;2023-03-21T02:01:57;70.70;;;9.27;;
10823;SDS011;39116;59.332;18.034;2023-03-21T02:04:27;29.43;;;6.83;;
10823;SDS011;39116;59.332;18.034;2023-03-21T02:06:50;48.33;;;8.77;;
10823;SDS011;39116;59.332;18.034;2023-03-21T02:09:18;29.83;;;7.03;;
10823;SDS011;39116;59.332;18.034;2023-03-21T02:11:44;34.67;;;7.90;;
10823;SDS011;39116;59.332;18.034;2023-03-21T02:14:08;74.87;;;8.37;;
10823;SDS011;39116;59.332;18.034;2023-03-21T02:16:40;86.87;;;9.40;;
10823;SDS011;39116;59.332;18.034;2023-03-21T02:19:16;54.43;;;7.60;;
10823;SDS011;39116;59.332;18.034;2023-03-21T02:22:01;96.03;;;8.83;;
10823;SDS011;39116;59.332;18.034;2023-03-21T02:25:04;87.53;;;8.80;;
10823;SDS011;39116;59.332;18.034;2023-03-21T02:27:48;71.17;;;8.40;;
10823;SDS011;39116;59.332;18.034;2023-03-21T02:33:18;49.97;;;6.17;;
10823;SDS011;39116;59.332;18.034;2023-03-21T02:36:01;48.03;;;6.97;;
10823;SDS011;39116;59.332;18.034;2023-03-21T02:38:39;149.37;;;11.00;;
10823;SDS011;39116;59.332;18.034;2023-03-21T02:41:08;83.50;;;9.33;;
10823;SDS011;39116;59.332;18.034;2023-03-21T02:43:39;102.30;;;8.90;;
10823;SDS011;39116;59.332;18.034;2023-03-21T02:46:06;71.33;;;7.67;;
10823;SDS011;39116;59.332;18.034;2023-03-21T02:48:35;155.97;;;11.10;;
10823;SDS011;39116;59.332;18.034;2023-03-21T02:50:59;101.30;;;8.77;;
10823;SDS011;39116;59.332;18.034;2023-03-21T02:53:25;69.10;;;8.43;;
10823;SDS011;39116;59.332;18.034;2023-03-21T02:55:53;70.37;;;8.70;;
10823;SDS011;39116;59.332;18.034;2023-03-21T02:58:18;65.17;;;7.93;;
10823;SDS011;39116;59.332;18.034;2023-03-21T03:00:43;100.63;;;9.13;;
10823;SDS011;39116;59.332;18.034;2023-03-21T03:03:06;66.20;;;9.03;;
10823;SDS011;39116;59.332;18.034;2023-03-21T03:05:29;102.23;;;10.60;;
10823;SDS011;39116;59.332;18.034;2023-03-21T03:07:56;98.73;;;10.40;;
10823;SDS011;39116;59.332;18.034;2023-03-21T03:10:36;96.43;;;9.33;;
10823;SDS011;39116;59.332;18.034;2023-03-21T03:13:13;53.07;;;8.83;;
10823;SDS011;39116;59.332;18.034;2023-03-21T03:15:46;39.90;;;7.80;;
10823;SDS011;39116;59.332;18.034;2023-03-21T03:18:18;115.27;;;12.43;;
10823;SDS011;39116;59.332;18.034;2023-03-21T03:20:49;64.27;;;9.83;;
10823;SDS011;39116;59.332;18.034;2023-03-21T03:23:22;96.83;;;10.20;;
10823;SDS011;39116;59.332;18.034;2023-03-21T03:25:50;45.47;;;7.27;;
10823;SDS011;39116;59.332;18.034;2023-03-21T03:28:18;65.87;;;9.03;;
10823;SDS011;39116;59.332;18.034;2023-03-21T03:30:45;134.23;;;10.83;;
10823;SDS011;39116;59.332;18.034;2023-03-21T03:33:08;43.03;;;7.00;;
10823;SDS011;39116;59.332;18.034;2023-03-21T03:35:31;115.73;;;10.07;;
10823;SDS011;39116;59.332;18.034;2023-03-21T03:37:53;207.23;;;12.83;;
10823;SDS011;39116;59.332;18.034;2023-03-21T03:40:19;105.17;;;9.40;;
10823;SDS011;39116;59.332;18.034;2023-03-21T03:42:47;145.10;;;12.40;;
10823;SDS011;39116;59.332;18.034;2023-03-21T03:45:13;66.67;;;8.40;;
10823;SDS011;39116;59.332;18.034;2023-03-21T03:47:36;30.97;;;6.63;;
10823;SDS011;39116;59.332;18.034;2023-03-21T03:50:02;38.70;;;7.00;;
10823;SDS011;39116;59.332;18.034;2023-03-21T03:52:30;79.90;;;8.93;;
10823;SDS011;39116;59.332;18.034;2023-03-21T03:54:56;140.87;;;11.60;;
10823;SDS011;39116;59.332;18.034;2023-03-21T03:57:19;118.87;;;10.53;;
10823;SDS011;39116;59.332;18.034;2023-03-21T03:59:42;78.73;;;8.30;;
10823;SDS011;39116;59.332;18.034;2023-03-21T04:02:06;88.33;;;8.50;;
10823;SDS011;39116;59.332;18.034;2023-03-21T04:04:28;208.37;;;14.17;;
10823;SDS011;39116;59.332;18.034;2023-03-21T04:06:50;176.70;;;11.80;;
10823;SDS011;39116;59.332;18.034;2023-03-21T04:09:12;58.53;;;7.50;;
10823;SDS011;39116;59.332;18.034;2023-03-21T04:11:35;132.77;;;11.33;;
10823;SDS011;39116;59.332;18.034;2023-03-21T04:13:58;95.90;;;9.53;;
10823;SDS011;39116;59.332;18.034;2023-03-21T04:16:20;71.30;;;8.67;;
10823;SDS011;39116;59.332;18.034;2023-03-21T04:18:44;64.63;;;9.27;;
10823;SDS011;39116;59.332;18.034;2023-03-21T04:21:07;197.57;;;14.57;;
10823;SDS011;39116;59.332;18.034;2023-03-21T04:23:29;184.17;;;13.37;;
10823;SDS011;39116;59.332;18.034;2023-03-21T04:25:52;60.90;;;9.07;;
10823;SDS011;39116;59.332;18.034;2023-03-21T04:28:14;116.13;;;10.80;;
10823;SDS011;39116;59.332;18.034;2023-03-21T04:30:36;94.93;;;9.83;;
10823;SDS011;39116;59.332;18.034;2023-03-21T04:32:58;84.60;;;9.13;;
10823;SDS011;39116;59.332;18.034;2023-03-21T04:35:22;52.43;;;7.43;;
10823;SDS011;39116;59.332;18.034;2023-03-21T04:37:44;61.03;;;8.40;;
10823;SDS011;39116;59.332;18.034;2023-03-21T04:40:07;121.07;;;11.17;;
10823;SDS011;39116;59.332;18.034;2023-03-21T04:42:30;94.00;;;10.00;;
10823;SDS011;39116;59.332;18.034;2023-03-21T04:44:52;92.30;;;9.33;;
10823;SDS011;39116;59.332;18.034;2023-03-21T04:47:14;117.43;;;10.40;;
10823;SDS011;39116;59.332;18.034;2023-03-21T04:49:39;69.83;;;9.10;;
10823;SDS011;39116;59.332;18.034;2023-03-21T04:52:02;39.50;;;8.10;;
10823;SDS011;39116;59.332;18.034;2023-03-21T04:54:24;89.50;;;10.20;;
10823;SDS011;39116;59.332;18.034;2023-03-21T04:56:46;170.33;;;14.07;;
10823;SDS011;39116;59.332;18.034;2023-03-21T04:59:09;44.13;;;7.93;;
10823;SDS011;39116;59.332;18.034;2023-03-21T05:01:32;84.37;;;9.50;;
10823;SDS011;39116;59.332;18.034;2023-03-21T05:03:55;80.20;;;8.80;;
10823;SDS011;39116;59.332;18.034;2023-03-21T05:06:17;55.53;;;7.73;;
10823;SDS011;39116;59.332;18.034;2023-03-21T05:08:41;45.33;;;7.03;;
10823;SDS011;39116;59.332;18.034;2023-03-21T05:11:03;46.13;;;6.87;;
10823;SDS011;39116;59.332;18.034;2023-03-21T05:13:25;65.67;;;7.97;;
10823;SDS011;39116;59.332;18.034;2023-03-21T05:15:47;129.23;;;10.40;;
10823;SDS011;39116;59.332;18.034;2023-03-21T05:18:09;155.83;;;12.30;;
10823;SDS011;39116;59.332;18.034;2023-03-21T05:20:31;85.53;;;9.37;;
10823;SDS011;39116;59.332;18.034;2023-03-21T05:22:53;60.77;;;7.40;;
10823;SDS011;39116;59.332;18.034;2023-03-21T05:25:16;73.20;;;8.27;;
10823;SDS011;39116;59.332;18.034;2023-03-21T05:27:54;38.53;;;6.93;;
10823;SDS011;39116;59.332;18.034;2023-03-21T05:30:16;131.47;;;11.57;;
10823;SDS011;39116;59.332;18.034;2023-03-21T05:32:38;56.67;;;8.07;;
10823;SDS011;39116;59.332;18.034;2023-03-21T05:35:01;60.93;;;9.03;;
10823;SDS011;39116;59.332;18.034;2023-03-21T05:37:23;150.60;;;12.90;;
10823;SDS011;39116;59.332;18.034;2023-03-21T05:39:45;95.63;;;10.17;;
10823;SDS011;39116;59.332;18.034;2023-03-21T05:42:08;138.07;;;10.43;;
10823;SDS011;39116;59.332;18.034;2023-03-21T05:44:30;166.67;;;12.77;;
10823;SDS011;39116;59.332;18.034;2023-03-21T05:46:52;150.87;;;11.37;;
10823;SDS011;39116;59.332;18.034;2023-03-21T05:49:14;114.17;;;10.20;;
10823;SDS011;39116;59.332;18.034;2023-03-21T05:51:36;66.43;;;8.37;;
10823;SDS011;39116;59.332;18.034;2023-03-21T05:53:58;103.20;;;9.53;;
10823;SDS011;39116;59.332;18.034;2023-03-21T05:56:20;94.93;;;9.47;;
10823;SDS011;39116;59.332;18.034;2023-03-21T05:58:43;89.63;;;9.20;;
10823;SDS011;39116;59.332;18.034;2023-03-21T06:01:06;70.63;;;8.70;;
10823;SDS011;39116;59.332;18.034;2023-03-21T06:03:28;85.63;;;8.67;;
10823;SDS011;39116;59.332;18.034;2023-03-21T06:05:50;131.47;;;11.20;;
10823;SDS011;39116;59.332;18.034;2023-03-21T06:08:12;47.40;;;7.90;;
10823;SDS011;39116;59.332;18.034;2023-03-21T06:10:34;113.40;;;10.80;;
10823;SDS011;39116;59.332;18.034;2023-03-21T06:12:56;108.87;;;10.67;;
10823;SDS011;39116;59.332;18.034;2023-03-21T06:15:19;148.97;;;13.30;;
10823;SDS011;39116;59.332;18.034;2023-03-21T06:17:41;39.50;;;8.53;;
10823;SDS011;39116;59.332;18.034;2023-03-21T06:20:04;72.17;;;10.67;;
10823;SDS011;39116;59.332;18.034;2023-03-21T06:22:27;118.53;;;11.90;;
10823;SDS011;39116;59.332;18.034;2023-03-21T06:24:49;49.70;;;9.33;;
10823;SDS011;39116;59.332;18.034;2023-03-21T06:27:11;32.83;;;9.40;;
10823;SDS011;39116;59.332;18.034;2023-03-21T06:29:33;23.67;;;8.23;;
10823;SDS011;39116;59.332;18.034;2023-03-21T06:31:56;28.17;;;9.23;;
10823;SDS011;39116;59.332;18.034;2023-03-21T06:34:18;60.40;;;9.33;;
10823;SDS011;39116;59.332;18.034;2023-03-21T06:36:40;20.53;;;7.40;;
10823;SDS011;39116;59.332;18.034;2023-03-21T06:39:03;45.63;;;8.93;;
10823;SDS011;39116;59.332;18.034;2023-03-21T06:41:26;19.00;;;7.03;;
10823;SDS011;39116;59.332;18.034;2023-03-21T06:43:48;28.57;;;7.20;;
10823;SDS011;39116;59.332;18.034;2023-03-21T06:46:10;17.83;;;6.60;;
10823;SDS011;39116;59.332;18.034;2023-03-21T06:48:33;32.60;;;8.00;;
10823;SDS011;39116;59.332;18.034;2023-03-21T06:50:56;90.57;;;10.53;;
10823;SDS011;39116;59.332;18.034;2023-03-21T06:53:19;29.93;;;6.70;;
10823;SDS011;39116;59.332;18.034;2023-03-21T06:55:47;37.03;;;7.00;;
10823;SDS011;39116;59.332;18.034;2023-03-21T06:58:09;47.83;;;7.03;;
10823;SDS011;39116;59.332;18.034;2023-03-21T07:00:31;98.20;;;9.27;;
10823;SDS011;39116;59.332;18.034;2023-03-21T07:02:54;94.50;;;9.73;;
10823;SDS011;39116;59.332;18.034;2023-03-21T07:05:17;11.57;;;5.33;;
10823;SDS011;39116;59.332;18.034;2023-03-21T07:07:39;28.97;;;6.00;;
10823;SDS011;39116;59.332;18.034;2023-03-21T07:10:02;15.40;;;5.20;;
10823;SDS011;39116;59.332;18.034;2023-03-21T07:12:24;49.00;;;7.20;;
10823;SDS011;39116;59.332;18.034;2023-03-21T07:14:46;32.87;;;5.73;;
10823;SDS011;39116;59.332;18.034;2023-03-21T07:17:08;22.10;;;6.17;;
10823;SDS011;39116;59.332;18.034;2023-03-21T07:19:30;21.63;;;5.47;;
10823;SDS011;39116;59.332;18.034;2023-03-21T07:21:53;31.87;;;6.20;;
10823;SDS011;39116;59.332;18.034;2023-03-21T07:24:15;44.00;;;5.77;;
10823;SDS011;39116;59.332;18.034;2023-03-21T07:26:37;22.87;;;6.00;;
10823;SDS011;39116;59.332;18.034;2023-03-21T07:28:59;32.63;;;6.33;;
10823;SDS011;39116;59.332;18.034;2023-03-21T07:31:21;69.17;;;9.33;;
10823;SDS011;39116;59.332;18.034;2023-03-21T07:33:45;12.43;;;6.07;;
10823;SDS011;39116;59.332;18.034;2023-03-21T07:36:08;13.73;;;6.53;;
10823;SDS011;39116;59.332;18.034;2023-03-21T07:38:33;15.80;;;5.50;;
10823;SDS011;39116;59.332;18.034;2023-03-21T07:40:57;46.13;;;6.73;;
10823;SDS011;39116;59.332;18.034;2023-03-21T07:43:19;34.37;;;6.47;;
10823;SDS011;39116;59.332;18.034;2023-03-21T07:45:41;20.07;;;5.17;;
10823;SDS011;39116;59.332;18.034;2023-03-21T07:48:04;24.70;;;5.83;;
10823;SDS011;39116;59.332;18.034;2023-03-21T07:50:26;52.50;;;6.23;;
10823;SDS011;39116;59.332;18.034;2023-03-21T07:52:48;41.60;;;5.57;;
10823;SDS011;39116;59.332;18.034;2023-03-21T07:55:11;21.53;;;5.30;;
10823;SDS011;39116;59.332;18.034;2023-03-21T07:57:33;7.73;;;4.93;;
10823;SDS011;39116;59.332;18.034;2023-03-21T07:59:55;55.43;;;6.50;;
10823;SDS011;39116;59.332;18.034;2023-03-21T08:02:17;14.40;;;5.60;;
10823;SDS011;39116;59.332;18.034;2023-03-21T08:04:39;10.80;;;5.07;;
10823;SDS011;39116;59.332;18.034;2023-03-21T08:07:01;11.60;;;5.07;;
10823;SDS011;39116;59.332;18.034;2023-03-21T08:09:23;10.10;;;5.23;;
10823;SDS011;39116;59.332;18.034;2023-03-21T08:11:47;8.70;;;4.80;;
10823;SDS011;39116;59.332;18.034;2023-03-21T08:14:08;7.60;;;4.70;;
10823;SDS011;39116;59.332;18.034;2023-03-21T08:16:30;33.80;;;6.33;;
10823;SDS011;39116;59.332;18.034;2023-03-21T08:18:52;9.13;;;5.53;;
10823;SDS011;39116;59.332;18.034;2023-03-21T08:21:14;14.77;;;5.43;;
10823;SDS011;39116;59.332;18.034;2023-03-21T08:23:36;18.70;;;5.43;;
10823;SDS011;39116;59.332;18.034;2023-03-21T08:25:58;12.50;;;4.50;;
10823;SDS011;39116;59.332;18.034;2023-03-21T08:28:22;10.77;;;4.40;;
10823;SDS011;39116;59.332;18.034;2023-03-21T08:30:44;10.67;;;5.57;;
10823;SDS011;39116;59.332;18.034;2023-03-21T08:33:06;5.17;;;4.20;;
10823;SDS011;39116;59.332;18.034;2023-03-21T08:35:29;7.50;;;4.60;;
10823;SDS011;39116;59.332;18.034;2023-03-21T08:37:51;6.60;;;4.10;;
10823;SDS011;39116;59.332;18.034;2023-03-21T08:40:14;5.87;;;3.70;;
10823;SDS011;39116;59.332;18.034;2023-03-21T08:42:37;5.37;;;3.73;;
10823;SDS011;39116;59.332;18.034;2023-03-21T08:45:00;4.67;;;3.60;;
10823;SDS011;39116;59.332;18.034;2023-03-21T08:47:23;4.30;;;3.43;;
10823;SDS011;39116;59.332;18.034;2023-03-21T08:49:45;4.47;;;3.67;;
10823;SDS011;39116;59.332;18.034;2023-03-21T08:52:07;4.10;;;3.20;;
10823;SDS011;39116;59.332;18.034;2023-03-21T08:54:29;7.37;;;3.50;;
10823;SDS011;39116;59.332;18.034;2023-03-21T08:56:51;4.50;;;3.57;;
10823;SDS011;39116;59.332;18.034;2023-03-21T08:59:14;5.03;;;3.00;;
10823;SDS011;39116;59.332;18.034;2023-03-21T09:01:37;6.77;;;2.70;;
10823;SDS011;39116;59.332;18.034;2023-03-21T09:03:59;2.33;;;2.13;;
10823;SDS011;39116;59.332;18.034;2023-03-21T09:06:21;2.80;;;2.13;;
10823;SDS011;39116;59.332;18.034;2023-03-21T09:08:44;5.47;;;2.60;;
10823;SDS011;39116;59.332;18.034;2023-03-21T09:11:06;3.00;;;1.77;;
10823;SDS011;39116;59.332;18.034;2023-03-21T09:13:28;2.40;;;2.07;;
10823;SDS011;39116;59.332;18.034;2023-03-21T09:15:50;3.00;;;2.03;;
10823;SDS011;39116;59.332;18.034;2023-03-21T09:18:14;2.60;;;2.10;;
10823;SDS011;39116;59.332;18.034;2023-03-21T09:20:37;3.63;;;2.20;;
10823;SDS011;39116;59.332;18.034;2023-03-21T09:23:00;2.23;;;2.03;;
10823;SDS011;39116;59.332;18.034;2023-03-21T09:25:21;2.50;;;1.87;;
10823;SDS011;39116;59.332;18.034;2023-03-21T09:27:44;3.93;;;2.43;;
10823;SDS011;39116;59.332;18.034;2023-03-21T09:30:07;2.00;;;1.77;;
10823;SDS011;39116;59.332;18.034;2023-03-21T09:32:30;3.23;;;2.30;;
10823;SDS011;39116;59.332;18.034;2023-03-21T09:34:54;2.67;;;1.97;;
10823;SDS011;39116;59.332;18.034;2023-03-21T09:37:16;4.13;;;1.83;;
10823;SDS011;39116;59.332;18.034;2023-03-21T09:39:40;2.83;;;1.80;;
10823;SDS011;39116;59.332;18.034;2023-03-21T09:42:09;3.07;;;1.80;;
10823;SDS011;39116;59.332;18.034;2023-03-21T09:44:42;4.17;;;1.87;;
10823;SDS011;39116;59.332;18.034;2023-03-21T09:47:14;3.63;;;1.63;;
10823;SDS011;39116;59.332;18.034;2023-03-21T09:49:41;3.20;;;1.57;;
10823;SDS011;39116;59.332;18.034;2023-03-21T09:52:12;1.83;;;1.50;;
10823;SDS011;39116;59.332;18.034;2023-03-21T09:54:40;2.33;;;1.50;;
10823;SDS011;39116;59.332;18.034;2023-03-21T09:57:04;2.35;;;1.80;;
10823;SDS011;39116;59.332;18.034;2023-03-21T09:59:38;3.50;;;1.65;;
10823;SDS011;39116;59.332;18.034;2023-03-21T10:02:01;4.15;;;1.30;;
10823;SDS011;39116;59.332;18.034;2023-03-21T10:04:31;2.83;;;1.27;;
10823;SDS011;39116;59.332;18.034;2023-03-21T10:06:56;2.17;;;1.10;;
10823;SDS011;39116;59.332;18.034;2023-03-21T10:09:22;1.88;;;0.88;;
10823;SDS011;39116;59.332;18.034;2023-03-21T10:11:48;5.38;;;1.20;;
10823;SDS011;39116;59.332;18.034;2023-03-21T10:14:15;3.40;;;1.52;;
10823;SDS011;39116;59.332;18.034;2023-03-21T10:16:42;2.65;;;1.10;;
10823;SDS011;39116;59.332;18.034;2023-03-21T10:19:06;1.15;;;1.00;;
10823;SDS011;39116;59.332;18.034;2023-03-21T10:21:32;1.33;;;1.00;;
10823;SDS011;39116;59.332;18.034;2023-03-21T10:23:55;2.42;;;1.00;;
10823;SDS011;39116;59.332;18.034;2023-03-21T10:26:20;1.73;;;1.00;;
10823;SDS011;39116;59.332;18.034;2023-03-21T10:28:43;0.80;;;0.80;;
10823;SDS011;39116;59.332;18.034;2023-03-21T10:31:07;2.35;;;0.80;;
10823;SDS011;39116;59.332;18.034;2023-03-21T10:33:31;2.40;;;1.00;;
10823;SDS011;39116;59.332;18.034;2023-03-21T10:35:57;0.98;;;0.80;;
10823;SDS011;39116;59.332;18.034;2023-03-21T10:38:23;4.00;;;1.77;;
10823;SDS011;39116;59.332;18.034;2023-03-21T10:40:46;1.73;;;1.10;;
10823;SDS011;39116;59.332;18.034;2023-03-21T10:45:54;2.38;;;0.85;;
10823;SDS011;39116;59.332;18.034;2023-03-21T10:48:17;0.93;;;0.73;;
10823;SDS011;39116;59.332;18.034;2023-03-21T10:50:39;1.50;;;1.02;;
10823;SDS011;39116;59.332;18.034;2023-03-21T10:53:02;1.55;;;0.85;;
10823;SDS011;39116;59.332;18.034;2023-03-21T10:55:38;2.45;;;1.10;;
10823;SDS011;39116;59.332;18.034;2023-03-21T10:58:02;1.48;;;1.00;;
10823;SDS011;39116;59.332;18.034;2023-03-21T11:00:32;1.45;;;0.90;;
10823;SDS011;39116;59.332;18.034;2023-03-21T11:02:57;2.55;;;1.02;;
10823;SDS011;39116;59.332;18.034;2023-03-21T11:05:21;0.95;;;0.80;;
10823;SDS011;39116;59.332;18.034;2023-03-21T11:07:45;1.20;;;0.80;;
10823;SDS011;39116;59.332;18.034;2023-03-21T11:10:11;2.47;;;0.80;;
10823;SDS011;39116;59.332;18.034;2023-03-21T11:12:35;1.55;;;1.00;;
10823;SDS011;39116;59.332;18.034;2023-03-21T11:15:20;2.13;;;0.80;;
10823;SDS011;39116;59.332;18.034;2023-03-21T11:17:48;3.33;;;0.88;;
10823;SDS011;39116;59.332;18.034;2023-03-21T11:20:10;3.97;;;0.95;;
10823;SDS011;39116;59.332;18.034;2023-03-21T11:22:39;0.93;;;0.73;;
10823;SDS011;39116;59.332;18.034;2023-03-21T11:25:06;3.03;;;0.90;;
10823;SDS011;39116;59.332;18.034;2023-03-21T11:27:31;3.33;;;0.88;;
10823;SDS011;39116;59.332;18.034;2023-03-21T11:29:54;2.17;;;0.90;;
10823;SDS011;39116;59.332;18.034;2023-03-21T11:32:21;1.00;;;0.70;;
10823;SDS011;39116;59.332;18.034;2023-03-21T11:34:47;1.40;;;0.90;;
10823;SDS011;39116;59.332;18.034;2023-03-21T11:37:16;2.67;;;0.85;;
10823;SDS011;39116;59.332;18.034;2023-03-21T11:39:41;1.45;;;0.70;;
10823;SDS011;39116;59.332;18.034;2023-03-21T11:42:22;3.03;;;1.10;;
10823;SDS011;39116;59.332;18.034;2023-03-21T11:44:47;3.35;;;1.00;;
10823;SDS011;39116;59.332;18.034;2023-03-21T11:47:17;3.85;;;0.90;;
10823;SDS011;39116;59.332;18.034;2023-03-21T11:49:39;2.40;;;1.15;;
10823;SDS011;39116;59.332;18.034;2023-03-21T11:52:18;1.40;;;0.90;;
10823;SDS011;39116;59.332;18.034;2023-03-21T11:54:52;1.27;;;0.80;;
10823;SDS011;39116;59.332;18.034;2023-03-21T11:57:25;1.20;;;0.80;;
10823;SDS011;39116;59.332;18.034;2023-03-21T11:59:55;1.42;;;0.90;;
10823;SDS011;39116;59.332;18.034;2023-03-21T12:02:27;1.70;;;0.93;;
10823;SDS011;39116;59.332;18.034;2023-03-21T12:05:15;2.55;;;1.00;;
10823;SDS011;39116;59.332;18.034;2023-03-21T12:07:46;1.50;;;0.68;;
10823;SDS011;39116;59.332;18.034;2023-03-21T12:10:26;6.03;;;0.70;;
10823;SDS011;39116;59.332;18.034;2023-03-21T12:12:58;1.27;;;0.85;;
10823;SDS011;39116;59.332;18.034;2023-03-21T12:15:30;5.65;;;1.33;;
10823;SDS011;39116;59.332;18.034;2023-03-21T12:18:01;2.33;;;0.90;;
10823;SDS011;39116;59.332;18.034;2023-03-21T12:20:36;1.92;;;0.80;;
10823;SDS011;39116;59.332;18.034;2023-03-21T12:23:07;3.88;;;1.30;;
10823;SDS011;39116;59.332;18.034;2023-03-21T12:25:45;5.35;;;1.52;;
10823;SDS011;39116;59.332;18.034;2023-03-21T12:28:17;6.25;;;1.50;;
10823;SDS011;39116;59.332;18.034;2023-03-21T12:30:47;4.65;;;1.10;;
10823;SDS011;39116;59.332;18.034;2023-03-21T12:33:22;1.65;;;0.68;;
10823;SDS011;39116;59.332;18.034;2023-03-21T12:35:54;1.98;;;1.10;;
10823;SDS011;39116;59.332;18.034;2023-03-21T12:38:40;2.38;;;0.70;;
10823;SDS011;39116;59.332;18.034;2023-03-21T12:41:15;2.45;;;1.13;;
10823;SDS011;39116;59.332;18.034;2023-03-21T12:43:45;1.33;;;0.90;;
10823;SDS011;39116;59.332;18.034;2023-03-21T12:46:14;3.20;;;0.85;;
10823;SDS011;39116;59.332;18.034;2023-03-21T12:48:43;1.02;;;0.70;;
10823;SDS011;39116;59.332;18.034;2023-03-21T12:51:09;2.38;;;0.75;;
10823;SDS011;39116;59.332;18.034;2023-03-21T12:53:36;2.00;;;0.70;;
10823;SDS011;39116;59.332;18.034;2023-03-21T12:56:08;2.85;;;0.70;;
10823;SDS011;39116;59.332;18.034;2023-03-21T12:58:38;4.13;;;0.82;;
10823;SDS011;39116;59.332;18.034;2023-03-21T13:01:06;2.67;;;0.90;;
10823;SDS011;39116;59.332;18.034;2023-03-21T13:03:32;2.55;;;0.70;;
10823;SDS011;39116;59.332;18.034;2023-03-21T13:06:01;0.80;;;0.70;;
10823;SDS011;39116;59.332;18.034;2023-03-21T13:08:25;1.42;;;0.70;;
10823;SDS011;39116;59.332;18.034;2023-03-21T13:10:52;3.08;;;0.85;;
10823;SDS011;39116;59.332;18.034;2023-03-21T13:13:17;3.63;;;0.85;;
10823;SDS011;39116;59.332;18.034;2023-03-21T13:15:46;3.92;;;1.20;;
10823;SDS011;39116;59.332;18.034;2023-03-21T13:18:22;2.03;;;0.85;;
10823;SDS011;39116;59.332;18.034;2023-03-21T13:20:54;3.47;;;0.70;;
10823;SDS011;39116;59.332;18.034;2023-03-21T13:23:18;1.45;;;0.80;;
10823;SDS011;39116;59.332;18.034;2023-03-21T13:25:44;3.40;;;1.10;;
10823;SDS011;39116;59.332;18.034;2023-03-21T13:28:15;3.22;;;0.90;;
10823;SDS011;39116;59.332;18.034;2023-03-21T13:30:40;7.25;;;0.93;;
10823;SDS011;39116;59.332;18.034;2023-03-21T13:33:03;2.38;;;1.10;;
10823;SDS011;39116;59.332;18.034;2023-03-21T13:35:31;2.53;;;1.30;;
10823;SDS011;39116;59.332;18.034;2023-03-21T13:37:57;1.33;;;1.00;;
10823;SDS011;39116;59.332;18.034;2023-03-21T13:40:23;1.52;;;1.10;;
10823;SDS011;39116;59.332;18.034;2023-03-21T13:42:49;2.10;;;1.30;;
10823;SDS011;39116;59.332;18.034;2023-03-21T13:45:22;3.55;;;1.10;;
10823;SDS011;39116;59.332;18.034;2023-03-21T13:47:50;3.78;;;1.20;;
10823;SDS011;39116;59.332;18.034;2023-03-21T13:53:28;2.25;;;0.82;;
10823;SDS011;39116;59.332;18.034;2023-03-21T13:58:49;1.30;;;0.93;;
10823;SDS011;39116;59.332;18.034;2023-03-21T14:01:25;1.10;;;0.68;;
10823;SDS011;39116;59.332;18.034;2023-03-21T14:03:55;0.75;;;0.63;;
10823;SDS011;39116;59.332;18.034;2023-03-21T14:06:19;2.53;;;0.80;;
10823;SDS011;39116;59.332;18.034;2023-03-21T14:08:42;2.40;;;0.73;;
10823;SDS011;39116;59.332;18.034;2023-03-21T14:11:07;2.83;;;0.88;;
10823;SDS011;39116;59.332;18.034;2023-03-21T14:13:33;3.30;;;1.10;;
10823;SDS011;39116;59.332;18.034;2023-03-21T14:15:57;2.25;;;0.95;;
10823;SDS011;39116;59.332;18.034;2023-03-21T14:18:24;1.63;;;0.73;;
10823;SDS011;39116;59.332;18.034;2023-03-21T14:20:51;4.15;;;1.30;;
10823;SDS011;39116;59.332;18.034;2023-03-21T14:23:14;4.97;;;0.73;;